Terminal Aerodrome Forecast
Issued by NWS Boston, MA

Home | Current Version | Previous Version | Text Only | Print | Product List | Glossary On
Versions: 1 2 3 4 5 6 7 8 9 10 11 12 13 14 15 16 17 18 19 20 21 22 23 24 25 26 27 28 29 30 31 32 33 34 35 36 37 38 39 40
000
FTUS41 KBOX 301737
TAFPVD
TAF
KPVD 301737Z 3018/3118 28004KT 5SM -SN BR FEW007 OVC025
     FM301900 32008KT P6SM OVC020
     FM302300 32010G21KT P6SM OVC015
     FM310300 32013G30KT P6SM OVC040
     FM311600 32015G36KT P6SM SCT250=

USA.gov is the U.S. government's official web portal to all federal, state and local government web resources and services.